createdAt,value
2023-04-22T00:01:06.799Z,8.80
2023-04-22T00:03:34.157Z,8.80
2023-04-22T00:06:01.428Z,8.80
2023-04-22T00:08:28.602Z,8.70
2023-04-22T00:10:56.710Z,8.70
2023-04-22T00:13:23.730Z,8.70
2023-04-22T00:15:51.295Z,8.70
2023-04-22T00:18:18.307Z,8.70
2023-04-22T00:20:45.593Z,8.60
2023-04-22T00:23:13.348Z,8.60
2023-04-22T00:25:40.723Z,8.60
2023-04-22T00:28:07.743Z,8.50
2023-04-22T00:30:35.965Z,8.60
2023-04-22T00:33:03.011Z,8.50
2023-04-22T00:35:30.536Z,8.50
2023-04-22T00:37:57.409Z,8.50
2023-04-22T00:40:24.276Z,8.40
2023-04-22T00:42:51.663Z,8.40
2023-04-22T00:45:19.907Z,8.40
2023-04-22T00:47:47.673Z,8.40
2023-04-22T00:50:15.488Z,8.30
2023-04-22T00:52:42.380Z,8.30
2023-04-22T00:55:09.806Z,8.30
2023-04-22T00:57:37.449Z,8.30
2023-04-22T01:00:06.726Z,8.20
2023-04-22T01:02:34.030Z,8.20
2023-04-22T01:05:01.713Z,8.20
2023-04-22T01:07:28.980Z,8.10
2023-04-22T01:09:56.607Z,8.10
2023-04-22T01:12:23.478Z,8.00
2023-04-22T01:14:50.478Z,8.00
2023-04-22T01:17:19.464Z,7.90
2023-04-22T01:19:47.275Z,8.00
2023-04-22T01:22:14.909Z,7.90
2023-04-22T01:24:41.848Z,7.90
2023-04-22T01:27:09.214Z,7.90
2023-04-22T01:29:39.526Z,7.90
2023-04-22T01:32:06.969Z,7.80
2023-04-22T01:34:34.048Z,7.80
2023-04-22T01:37:00.967Z,7.70
2023-04-22T01:39:28.019Z,7.70
2023-04-22T01:41:55.769Z,7.70
2023-04-22T01:44:22.939Z,7.60
2023-04-22T01:46:50.992Z,7.60
2023-04-22T01:49:17.856Z,7.60
2023-04-22T01:51:44.738Z,7.60
2023-04-22T01:54:13.095Z,7.60
2023-04-22T01:56:40.666Z,7.60
2023-04-22T01:59:08.885Z,7.60
2023-04-22T02:01:37.489Z,7.60
2023-04-22T02:04:06.678Z,7.60
2023-04-22T02:06:33.540Z,7.60
2023-04-22T02:09:00.433Z,7.60
2023-04-22T02:11:27.438Z,7.60
2023-04-22T02:13:54.383Z,7.70
2023-04-22T02:16:21.337Z,7.70
2023-04-22T02:18:48.940Z,7.70
2023-04-22T02:21:16.026Z,7.70
2023-04-22T02:23:42.983Z,7.70
2023-04-22T02:26:10.862Z,7.70
2023-04-22T02:28:37.811Z,7.70
2023-04-22T02:31:04.739Z,7.60
2023-04-22T02:33:31.633Z,7.60
2023-04-22T02:35:58.568Z,7.60
2023-04-22T02:38:25.528Z,7.70
2023-04-22T02:40:52.395Z,7.70
2023-04-22T02:43:19.405Z,7.70
2023-04-22T02:45:46.246Z,7.80
2023-04-22T02:48:13.273Z,7.90
2023-04-22T02:50:40.585Z,7.90
2023-04-22T02:53:09.088Z,7.90
2023-04-22T02:55:36.017Z,8.00
2023-04-22T02:58:02.995Z,8.00
2023-04-22T03:00:29.901Z,8.00
2023-04-22T03:02:56.876Z,8.00
2023-04-22T03:05:28.843Z,8.00
2023-04-22T03:07:55.941Z,8.00
2023-04-22T03:10:23.016Z,8.00
2023-04-22T03:12:50.865Z,7.90
2023-04-22T03:15:21.564Z,7.90
2023-04-22T03:17:49.255Z,7.90
2023-04-22T03:20:17.131Z,7.90
2023-04-22T03:22:44.090Z,7.90
2023-04-22T03:25:12.724Z,7.90
2023-04-22T03:27:40.066Z,7.90
2023-04-22T03:30:07.713Z,7.90
2023-04-22T03:32:35.104Z,7.90
2023-04-22T03:35:27.941Z,7.90
2023-04-22T03:37:58.047Z,7.90
2023-04-22T03:40:29.896Z,8.00
2023-04-22T03:42:56.862Z,7.90
2023-04-22T03:45:24.143Z,8.00
2023-04-22T03:48:07.907Z,8.00
2023-04-22T03:50:41.040Z,8.00
2023-04-22T03:53:08.020Z,8.00
2023-04-22T03:55:35.356Z,8.00
2023-04-22T03:58:02.291Z,8.00
2023-04-22T04:00:29.893Z,8.00
2023-04-22T04:03:07.506Z,8.10
2023-04-22T04:05:35.773Z,8.00
2023-04-22T04:08:03.628Z,8.00
2023-04-22T04:10:30.700Z,8.10
2023-04-22T04:12:59.573Z,8.00
2023-04-22T04:15:28.064Z,8.00
2023-04-22T04:17:56.805Z,8.00
2023-04-22T04:20:25.922Z,8.00
2023-04-22T04:22:52.824Z,8.00
2023-04-22T04:25:21.300Z,8.00
2023-04-22T04:27:48.376Z,8.00
2023-04-22T04:30:16.392Z,7.90
2023-04-22T04:32:49.856Z,8.00
2023-04-22T04:35:18.378Z,8.00
2023-04-22T04:37:50.866Z,8.00
2023-04-22T04:40:19.082Z,8.00
2023-04-22T04:42:55.822Z,8.10
2023-04-22T04:45:27.475Z,8.10
2023-04-22T04:47:55.674Z,8.10
2023-04-22T04:50:28.119Z,8.10
2023-04-22T04:52:58.551Z,8.20
2023-04-22T04:55:32.237Z,8.20
2023-04-22T04:58:00.697Z,8.30
2023-04-22T05:00:28.089Z,8.30
2023-04-22T05:02:55.201Z,8.40
2023-04-22T05:05:22.215Z,8.40
2023-04-22T05:07:49.123Z,8.40
2023-04-22T05:10:17.180Z,8.50
2023-04-22T05:12:46.297Z,8.50
2023-04-22T05:15:17.713Z,8.50
2023-04-22T05:17:44.708Z,8.60
2023-04-22T05:20:11.797Z,8.70
2023-04-22T05:22:44.961Z,8.70
2023-04-22T05:25:13.288Z,8.80
2023-04-22T05:27:46.165Z,8.80
2023-04-22T05:30:14.196Z,8.90
2023-04-22T05:32:41.209Z,8.90
2023-04-22T05:35:11.332Z,9.00
2023-04-22T05:37:39.017Z,9.00
2023-04-22T05:40:06.938Z,9.10
2023-04-22T05:42:34.560Z,9.20
2023-04-22T05:45:01.445Z,9.20
2023-04-22T05:47:29.610Z,9.30
2023-04-22T05:49:57.236Z,9.40
2023-04-22T05:52:32.572Z,9.50
2023-04-22T05:55:08.131Z,9.50
2023-04-22T05:57:35.015Z,9.60
2023-04-22T06:00:05.451Z,9.70
2023-04-22T06:02:40.238Z,9.80
2023-04-22T06:05:08.485Z,9.80
2023-04-22T06:07:35.717Z,9.90
2023-04-22T06:10:07.565Z,10.00
2023-04-22T06:12:35.870Z,10.10
2023-04-22T06:15:04.057Z,10.20
2023-04-22T06:17:31.036Z,10.20
2023-04-22T06:19:57.997Z,10.30
2023-04-22T06:22:24.947Z,10.40
2023-04-22T06:24:51.938Z,10.40
2023-04-22T06:27:18.802Z,10.50
2023-04-22T06:29:45.966Z,10.60
2023-04-22T06:32:13.201Z,10.70
2023-04-22T06:34:41.885Z,10.80
2023-04-22T06:37:09.452Z,10.90
2023-04-22T06:39:36.681Z,11.00
2023-04-22T06:42:12.123Z,11.10
2023-04-22T06:44:59.230Z,11.20
2023-04-22T06:47:35.720Z,11.30
2023-04-22T06:50:10.484Z,11.50
2023-04-22T06:52:45.732Z,11.60
2023-04-22T06:55:12.668Z,11.80
2023-04-22T06:57:39.532Z,11.90
2023-04-22T07:00:10.668Z,12.10
2023-04-22T07:02:39.668Z,12.10
2023-04-22T07:05:06.949Z,12.20
2023-04-22T07:07:33.822Z,12.30
2023-04-22T07:10:01.321Z,12.50
2023-04-22T07:12:34.597Z,12.60
2023-04-22T07:15:01.488Z,12.80
2023-04-22T07:17:28.387Z,13.00
2023-04-22T07:19:55.308Z,13.20
2023-04-22T07:22:22.214Z,13.50
2023-04-22T07:24:49.100Z,13.80
2023-04-22T07:27:16.453Z,14.10
2023-04-22T07:29:43.422Z,14.40
2023-04-22T07:32:10.776Z,14.70
2023-04-22T07:34:37.696Z,14.90
2023-04-22T07:37:05.121Z,15.00
2023-04-22T07:39:32.038Z,15.30
2023-04-22T07:41:58.906Z,15.50
2023-04-22T07:44:25.730Z,15.70
2023-04-22T07:46:52.700Z,15.90
2023-04-22T07:49:20.043Z,16.10
2023-04-22T07:51:47.161Z,16.40
2023-04-22T07:54:14.015Z,16.70
2023-04-22T07:56:40.897Z,16.80
2023-04-22T07:59:08.004Z,16.90
2023-04-22T08:01:34.872Z,17.10
2023-04-22T08:04:02.063Z,17.00
2023-04-22T08:06:29.092Z,17.10
2023-04-22T08:08:56.030Z,17.00
2023-04-22T08:11:22.880Z,17.10
2023-04-22T08:13:49.772Z,17.00
2023-04-22T08:16:16.781Z,17.10
2023-04-22T08:18:43.704Z,17.20
2023-04-22T08:21:11.013Z,17.40
2023-04-22T08:23:38.040Z,17.60
2023-04-22T08:26:05.172Z,17.90
2023-04-22T08:28:32.225Z,18.30
2023-04-22T08:30:59.107Z,18.80
2023-04-22T08:33:27.301Z,19.40
2023-04-22T08:35:54.438Z,20.10
2023-04-22T08:38:21.315Z,20.40
2023-04-22T08:40:48.727Z,20.30
2023-04-22T08:43:15.936Z,20.30
2023-04-22T08:45:43.066Z,20.50
2023-04-22T08:48:10.382Z,20.90
2023-04-22T08:50:40.141Z,21.20
2023-04-22T08:53:07.118Z,21.50
2023-04-22T08:55:36.091Z,21.60
2023-04-22T08:58:06.989Z,21.40
2023-04-22T09:00:34.674Z,21.60
2023-04-22T09:03:03.747Z,22.10
2023-04-22T09:05:34.236Z,22.60
2023-04-22T09:08:02.334Z,22.80
2023-04-22T09:10:31.077Z,23.00
2023-04-22T09:13:00.173Z,23.10
2023-04-22T09:15:27.816Z,22.90
2023-04-22T09:17:54.751Z,22.70
2023-04-22T09:20:27.580Z,22.70
2023-04-22T09:22:55.810Z,22.80
2023-04-22T09:25:25.416Z,22.70
2023-04-22T09:27:58.040Z,22.40
2023-04-22T09:30:28.510Z,22.00
2023-04-22T09:32:57.568Z,21.90
2023-04-22T09:35:32.493Z,21.70
2023-04-22T09:38:01.591Z,21.40
2023-04-22T09:40:30.062Z,20.90
2023-04-22T09:43:01.216Z,20.70
2023-04-22T09:45:29.473Z,20.90
2023-04-22T09:47:58.074Z,21.00
2023-04-22T09:50:30.346Z,21.00
2023-04-22T09:53:01.379Z,20.90
2023-04-22T09:55:30.797Z,20.70
2023-04-22T09:57:58.732Z,20.70
2023-04-22T10:00:29.015Z,20.50
2023-04-22T10:02:56.020Z,20.60
2023-04-22T10:05:22.969Z,20.60
2023-04-22T10:07:50.288Z,20.50
2023-04-22T10:10:17.235Z,20.60
2023-04-22T10:12:44.594Z,20.70
2023-04-22T10:15:11.613Z,20.80
2023-04-22T10:17:39.943Z,20.90
2023-04-22T10:20:13.691Z,21.10
2023-04-22T10:22:42.852Z,21.40
2023-04-22T10:25:28.619Z,21.60
2023-04-22T10:28:06.470Z,21.60
2023-04-22T10:30:40.286Z,21.60
2023-04-22T10:33:23.929Z,21.40
2023-04-22T10:36:11.279Z,21.50
2023-04-22T10:38:40.350Z,21.50
2023-04-22T10:41:07.608Z,21.50
2023-04-22T10:43:58.626Z,21.60
2023-04-22T10:46:34.983Z,21.60
2023-04-22T10:49:13.444Z,21.60
2023-04-22T10:51:40.797Z,21.70
2023-04-22T10:54:08.429Z,21.60
2023-04-22T10:56:37.496Z,21.80
2023-04-22T10:59:18.624Z,21.90
2023-04-22T11:01:45.556Z,22.10
2023-04-22T11:04:23.113Z,22.30
2023-04-22T11:07:26.443Z,22.40
2023-04-22T11:10:15.877Z,22.60
2023-04-22T11:12:44.936Z,22.60
2023-04-22T11:15:13.385Z,22.80
2023-04-22T11:17:43.341Z,23.10
2023-04-22T11:20:12.874Z,23.30
2023-04-22T11:22:43.920Z,23.60
2023-04-22T11:25:11.198Z,23.80
2023-04-22T11:27:39.457Z,24.00
2023-04-22T11:30:26.356Z,24.30
2023-04-22T11:32:55.020Z,24.70
2023-04-22T11:35:32.614Z,25.20
2023-04-22T11:38:04.901Z,25.60
2023-04-22T11:40:42.000Z,25.60
2023-04-22T11:43:11.484Z,25.60
2023-04-22T11:45:39.544Z,25.70
2023-04-22T11:48:08.307Z,25.70
2023-04-22T11:50:37.695Z,25.40
2023-04-22T11:53:12.611Z,24.80
2023-04-22T11:55:41.339Z,24.60
2023-04-22T11:58:25.213Z,24.70
2023-04-22T12:00:54.223Z,25.00
2023-04-22T12:03:21.181Z,25.10
2023-04-22T12:05:52.609Z,25.30
2023-04-22T12:08:25.082Z,25.60
2023-04-22T12:11:00.155Z,25.80
2023-04-22T12:13:33.008Z,25.70
2023-04-22T12:16:02.163Z,25.50
2023-04-22T12:18:33.166Z,25.40
2023-04-22T12:21:07.973Z,25.60
2023-04-22T12:23:49.460Z,25.50
2023-04-22T12:26:18.162Z,25.30
2023-04-22T12:28:46.076Z,25.40
2023-04-22T12:31:14.502Z,25.60
2023-04-22T12:33:41.680Z,25.40
2023-04-22T12:36:08.636Z,25.30
2023-04-22T12:38:35.728Z,25.30
2023-04-22T12:41:04.286Z,25.20
2023-04-22T12:43:33.413Z,25.30
2023-04-22T12:46:00.383Z,25.30
2023-04-22T12:48:27.354Z,25.10
2023-04-22T12:50:54.527Z,25.10
2023-04-22T12:53:22.182Z,24.90
2023-04-22T12:55:49.222Z,24.80
2023-04-22T12:58:16.308Z,24.70
2023-04-22T13:00:43.199Z,24.60
2023-04-22T13:03:10.220Z,24.40
2023-04-22T13:05:37.593Z,24.20
2023-04-22T13:08:07.838Z,23.90
2023-04-22T13:10:35.804Z,23.80
2023-04-22T13:15:34.454Z,24.00
2023-04-22T13:18:02.073Z,24.40
2023-04-22T13:20:29.099Z,24.70
2023-04-22T13:22:56.117Z,24.90
2023-04-22T13:25:23.099Z,25.00
2023-04-22T13:27:49.957Z,25.20
2023-04-22T13:30:16.912Z,25.20
2023-04-22T13:32:43.912Z,25.30
2023-04-22T13:35:10.991Z,25.30
2023-04-22T13:37:37.898Z,25.30
2023-04-22T13:40:06.087Z,25.20
2023-04-22T13:42:33.071Z,24.70
2023-04-22T13:45:00.009Z,24.20
2023-04-22T13:47:26.994Z,23.90
2023-04-22T13:49:53.888Z,23.70
2023-04-22T13:52:20.847Z,23.40
2023-04-22T13:54:47.741Z,23.20
2023-04-22T13:57:14.606Z,23.00
2023-04-22T13:59:42.115Z,22.80
2023-04-22T14:02:09.285Z,22.70
2023-04-22T14:04:36.247Z,22.60
2023-04-22T14:07:04.113Z,22.60
2023-04-22T14:09:31.366Z,22.60
2023-04-22T14:11:58.875Z,22.50
2023-04-22T14:14:25.930Z,22.70
2023-04-22T14:16:52.909Z,22.70
2023-04-22T14:19:20.307Z,22.70
2023-04-22T14:21:47.489Z,22.80
2023-04-22T14:24:14.535Z,22.80
2023-04-22T14:26:41.533Z,22.90
2023-04-22T14:29:08.520Z,22.80
2023-04-22T14:31:35.487Z,22.80
2023-04-22T14:34:02.427Z,22.80
2023-04-22T14:36:29.263Z,22.70
2023-04-22T14:38:56.439Z,22.50
2023-04-22T14:41:23.621Z,22.30
2023-04-22T14:43:50.588Z,22.10
2023-04-22T14:46:17.490Z,22.00
2023-04-22T14:48:44.843Z,22.00
2023-04-22T14:51:11.927Z,21.90
2023-04-22T14:53:39.028Z,21.80
2023-04-22T14:56:05.896Z,21.70
2023-04-22T14:58:32.832Z,21.70
2023-04-22T15:01:00.208Z,21.60
2023-04-22T15:03:27.777Z,21.40
2023-04-22T15:05:55.376Z,21.30
2023-04-22T15:08:25.084Z,21.20
2023-04-22T15:10:52.127Z,21.20
2023-04-22T15:13:19.801Z,21.10
2023-04-22T15:15:47.131Z,21.00
2023-04-22T15:18:14.210Z,20.90
2023-04-22T15:20:41.770Z,20.70
2023-04-22T15:23:08.752Z,20.60
2023-04-22T15:25:35.859Z,20.50
2023-04-22T15:28:02.960Z,20.40
2023-04-22T15:30:29.960Z,20.30
2023-04-22T15:32:58.268Z,20.20
2023-04-22T15:35:25.432Z,20.10
2023-04-22T15:37:52.963Z,20.10
2023-04-22T15:40:19.950Z,20.00
2023-04-22T15:42:46.836Z,19.90
2023-04-22T15:45:13.773Z,19.80
2023-04-22T15:47:41.366Z,19.70
2023-04-22T15:50:09.782Z,19.70
2023-04-22T15:52:38.098Z,19.60
2023-04-22T15:55:08.337Z,19.50
2023-04-22T15:57:35.791Z,19.50
2023-04-22T16:00:13.078Z,19.40
2023-04-22T16:02:44.413Z,19.50
2023-04-22T16:05:12.585Z,19.40
2023-04-22T16:07:40.219Z,19.40
2023-04-22T16:10:07.959Z,19.30
2023-04-22T16:12:34.832Z,19.30
2023-04-22T16:15:02.084Z,19.30
2023-04-22T16:17:29.902Z,19.30
2023-04-22T16:19:56.839Z,19.20
2023-04-22T16:22:23.715Z,19.20
2023-04-22T16:24:51.379Z,19.20
2023-04-22T16:27:19.338Z,19.10
2023-04-22T16:29:46.446Z,19.10
2023-04-22T16:32:13.412Z,19.10
2023-04-22T16:34:40.434Z,19.00
2023-04-22T16:37:07.749Z,19.00
2023-04-22T16:39:34.650Z,18.90
2023-04-22T16:42:03.126Z,18.90
2023-04-22T16:44:30.378Z,18.80
2023-04-22T16:46:57.252Z,18.80
2023-04-22T16:49:24.221Z,18.80
2023-04-22T16:51:51.409Z,18.80
2023-04-22T16:54:18.266Z,18.80
2023-04-22T16:56:45.220Z,18.70
2023-04-22T16:59:12.082Z,18.70
2023-04-22T17:01:40.930Z,18.60
2023-04-22T17:04:08.793Z,18.60
2023-04-22T17:06:37.589Z,18.50
2023-04-22T17:09:06.472Z,18.40
2023-04-22T17:11:33.504Z,18.40
2023-04-22T17:14:00.480Z,18.40
2023-04-22T17:16:27.369Z,18.30
2023-04-22T17:18:54.336Z,18.30
2023-04-22T17:21:23.350Z,18.20
2023-04-22T17:23:50.637Z,18.10
2023-04-22T17:26:17.598Z,18.10
2023-04-22T17:28:44.495Z,18.00
2023-04-22T17:31:11.868Z,18.00
2023-04-22T17:33:40.003Z,17.90
2023-04-22T17:36:07.177Z,17.90
2023-04-22T17:38:34.100Z,17.90
2023-04-22T17:41:01.064Z,17.80
2023-04-22T17:43:27.880Z,17.80
2023-04-22T17:45:54.801Z,17.70
2023-04-22T17:48:21.762Z,17.70
2023-04-22T17:50:48.721Z,17.60
2023-04-22T17:53:15.655Z,17.60
2023-04-22T17:55:42.674Z,17.60
2023-04-22T17:58:09.637Z,17.50
2023-04-22T18:00:37.636Z,17.50
2023-04-22T18:03:05.726Z,17.40
2023-04-22T18:05:32.827Z,17.40
2023-04-22T18:08:04.104Z,17.30
2023-04-22T18:10:31.197Z,17.30
2023-04-22T18:12:58.140Z,17.20
2023-04-22T18:15:24.996Z,17.10
2023-04-22T18:17:52.222Z,17.10
2023-04-22T18:20:19.860Z,17.00
2023-04-22T18:22:48.770Z,17.00
2023-04-22T18:25:16.592Z,17.00
2023-04-22T18:27:43.828Z,16.90
2023-04-22T18:30:11.414Z,16.90
2023-04-22T18:32:38.634Z,16.80
2023-04-22T18:35:06.193Z,16.70
2023-04-22T18:37:34.555Z,16.70
2023-04-22T18:40:02.290Z,16.60
2023-04-22T18:42:29.184Z,16.60
2023-04-22T18:44:56.026Z,16.50
2023-04-22T18:47:23.029Z,16.50
2023-04-22T18:49:50.002Z,16.40
2023-04-22T18:52:17.345Z,16.40
2023-04-22T18:54:44.737Z,16.30
2023-04-22T18:57:11.976Z,16.30
2023-04-22T18:59:39.189Z,16.30
2023-04-22T19:02:06.502Z,16.20
2023-04-22T19:04:33.540Z,16.20
2023-04-22T19:07:00.948Z,16.10
2023-04-22T19:09:27.854Z,16.10
2023-04-22T19:11:55.343Z,16.00
2023-04-22T19:14:22.240Z,16.10
2023-04-22T19:16:49.164Z,16.00
2023-04-22T19:19:16.206Z,16.00
2023-04-22T19:21:43.260Z,16.00
2023-04-22T19:24:10.120Z,15.90
2023-04-22T19:26:37.033Z,15.90
2023-04-22T19:29:03.945Z,15.90
2023-04-22T19:31:31.186Z,15.70
2023-04-22T19:33:58.447Z,15.60
2023-04-22T19:36:25.573Z,15.50
2023-04-22T19:38:52.435Z,15.40
2023-04-22T19:41:19.354Z,15.40
2023-04-22T19:43:46.635Z,15.30
2023-04-22T19:46:13.510Z,15.10
2023-04-22T19:48:40.767Z,15.10
2023-04-22T19:51:07.937Z,15.00
2023-04-22T19:53:35.563Z,15.00
2023-04-22T19:56:03.094Z,15.00
2023-04-22T19:58:30.896Z,15.00
2023-04-22T20:00:57.951Z,14.90
2023-04-22T20:03:25.237Z,14.90
2023-04-22T20:05:53.093Z,14.90
2023-04-22T20:08:20.605Z,14.90
2023-04-22T20:10:49.707Z,14.80
2023-04-22T20:13:17.495Z,14.80
2023-04-22T20:15:44.800Z,14.80
2023-04-22T20:18:12.107Z,14.70
2023-04-22T20:20:40.517Z,14.70
2023-04-22T20:23:10.573Z,14.60
2023-04-22T20:25:47.058Z,14.60
2023-04-22T20:28:14.473Z,14.50
2023-04-22T20:30:41.682Z,14.40
2023-04-22T20:33:12.152Z,14.30
2023-04-22T20:35:40.665Z,14.30
2023-04-22T20:38:13.190Z,14.20
2023-04-22T20:40:41.227Z,14.20
2023-04-22T20:43:08.456Z,14.10
2023-04-22T20:45:35.355Z,14.10
2023-04-22T20:48:02.472Z,14.00
2023-04-22T20:50:33.509Z,13.90
2023-04-22T20:53:01.227Z,13.80
2023-04-22T20:55:28.082Z,13.70
2023-04-22T20:57:55.084Z,13.60
2023-04-22T21:00:22.424Z,13.60
2023-04-22T21:02:50.348Z,13.50
2023-04-22T21:05:17.950Z,13.40
2023-04-22T21:07:52.045Z,13.40
2023-04-22T21:10:22.643Z,13.30
2023-04-22T21:12:49.783Z,13.30
2023-04-22T21:15:17.086Z,13.30
2023-04-22T21:17:52.549Z,13.20
2023-04-22T21:20:21.865Z,13.20
2023-04-22T21:22:49.262Z,13.20
2023-04-22T21:25:21.567Z,13.20
2023-04-22T21:27:48.629Z,13.10
2023-04-22T21:30:16.157Z,13.10
2023-04-22T21:32:43.119Z,13.10
2023-04-22T21:35:10.224Z,13.00
2023-04-22T21:37:37.503Z,13.00
2023-04-22T21:40:07.180Z,12.90
2023-04-22T21:42:34.039Z,12.90
2023-04-22T21:45:00.852Z,12.80
2023-04-22T21:47:27.723Z,12.80
2023-04-22T21:49:54.556Z,12.70
2023-04-22T21:52:21.600Z,12.70
2023-04-22T21:54:48.451Z,12.70
2023-04-22T21:57:15.581Z,12.70
2023-04-22T21:59:42.539Z,12.60
2023-04-22T22:02:09.397Z,12.60
2023-04-22T22:04:36.497Z,12.60
2023-04-22T22:07:03.454Z,12.60
2023-04-22T22:09:30.551Z,12.50
2023-04-22T22:11:57.470Z,12.50
2023-04-22T22:14:24.392Z,12.40
2023-04-22T22:16:53.746Z,12.40
2023-04-22T22:19:21.207Z,12.40
2023-04-22T22:21:48.072Z,12.30
2023-04-22T22:24:14.908Z,12.30
2023-04-22T22:26:42.897Z,12.30
2023-04-22T22:29:15.354Z,12.20
2023-04-22T22:31:43.610Z,12.20
2023-04-22T22:34:10.679Z,12.20
2023-04-22T22:36:37.722Z,12.10
2023-04-22T22:39:04.878Z,12.10
2023-04-22T22:41:31.745Z,12.10
2023-04-22T22:43:58.602Z,12.10
2023-04-22T22:46:25.674Z,12.10
2023-04-22T22:48:52.721Z,12.00
2023-04-22T22:51:19.578Z,12.00
2023-04-22T22:53:46.436Z,12.00
2023-04-22T22:56:15.337Z,12.00
2023-04-22T22:58:42.163Z,12.00
2023-04-22T23:01:08.972Z,12.00
2023-04-22T23:03:37.251Z,12.00
2023-04-22T23:06:04.456Z,11.90
2023-04-22T23:08:31.260Z,11.90
2023-04-22T23:10:57.992Z,11.90
2023-04-22T23:13:24.728Z,11.90
2023-04-22T23:15:51.439Z,11.90
2023-04-22T23:18:18.486Z,11.80
2023-04-22T23:20:46.610Z,11.80
2023-04-22T23:23:16.069Z,11.80
2023-04-22T23:25:43.195Z,11.80
2023-04-22T23:28:10.320Z,11.80
2023-04-22T23:30:37.452Z,11.80
2023-04-22T23:33:04.855Z,11.80
2023-04-22T23:35:33.088Z,11.80
2023-04-22T23:38:03.354Z,11.80
2023-04-22T23:40:30.258Z,11.80
2023-04-22T23:42:57.062Z,11.80
2023-04-22T23:45:23.836Z,11.90
2023-04-22T23:47:50.628Z,11.90
2023-04-22T23:50:19.100Z,11.90
2023-04-22T23:52:46.712Z,11.90
2023-04-22T23:55:15.882Z,11.90
2023-04-22T23:57:43.169Z,11.90
